createdAt,value
2018-03-31T00:00:52.734Z,86.33
2018-03-31T00:01:53.304Z,85.75
2018-03-31T00:02:53.876Z,85.38
2018-03-31T00:03:54.447Z,85.75
2018-03-31T00:04:55.018Z,85.75
2018-03-31T00:05:55.589Z,85.22
2018-03-31T00:06:56.161Z,84.89
2018-03-31T00:07:56.780Z,87.19
2018-03-31T00:08:57.402Z,85.18
2018-03-31T00:09:57.973Z,85.38
2018-03-31T00:10:58.543Z,85.66
2018-03-31T00:11:59.113Z,86.47
2018-03-31T00:12:59.684Z,85.09
2018-03-31T00:14:00.255Z,85.75
2018-03-31T00:15:00.829Z,85.38
2018-03-31T00:16:01.396Z,85.18
2018-03-31T00:17:01.968Z,85.32
2018-03-31T00:18:02.538Z,85.38
2018-03-31T00:19:03.110Z,85.28
2018-03-31T00:20:03.685Z,84.70
2018-03-31T00:21:04.407Z,85.66
2018-03-31T00:22:04.977Z,86.52
2018-03-31T00:23:05.550Z,85.47
2018-03-31T00:24:06.117Z,86.33
2018-03-31T00:25:06.760Z,85.75
2018-03-31T00:26:07.360Z,85.66
2018-03-31T00:27:07.931Z,84.89
2018-03-31T00:28:08.508Z,84.52
2018-03-31T00:29:09.091Z,84.23
2018-03-31T00:30:09.690Z,84.61
2018-03-31T00:31:10.261Z,85.38
2018-03-31T00:32:10.832Z,86.23
2018-03-31T00:33:11.402Z,84.99
2018-03-31T00:34:11.973Z,84.70
2018-03-31T00:35:12.545Z,85.28
2018-03-31T00:36:13.113Z,84.42
2018-03-31T00:37:13.684Z,84.70
2018-03-31T00:38:14.255Z,85.28
2018-03-31T00:39:14.824Z,84.99
2018-03-31T00:40:15.398Z,85.47
2018-03-31T00:41:16.061Z,85.38
2018-03-31T00:42:16.682Z,86.33
2018-03-31T00:43:17.254Z,87.29
2018-03-31T00:44:17.824Z,85.57
2018-03-31T00:45:18.397Z,85.28
2018-03-31T00:46:18.967Z,85.18
2018-03-31T00:47:19.537Z,85.66
2018-03-31T00:48:20.160Z,86.80
2018-03-31T00:49:20.731Z,86.61
2018-03-31T00:50:21.304Z,86.52
2018-03-31T00:51:21.873Z,85.75
2018-03-31T00:52:22.443Z,86.23
2018-03-31T00:53:23.016Z,86.61
2018-03-31T00:54:23.586Z,87.00
2018-03-31T00:55:24.164Z,87.09
2018-03-31T00:56:24.728Z,87.19
2018-03-31T00:57:25.452Z,86.52
2018-03-31T00:58:26.065Z,86.52
2018-03-31T00:59:26.637Z,85.28
2018-03-31T01:00:27.256Z,85.66
2018-03-31T01:01:27.829Z,86.61
2018-03-31T01:02:28.403Z,86.52
2018-03-31T01:03:28.970Z,86.52
2018-03-31T01:04:29.540Z,86.33
2018-03-31T01:05:30.162Z,86.61
2018-03-31T01:06:30.733Z,86.52
2018-03-31T01:07:31.305Z,87.00
2018-03-31T01:08:31.883Z,85.66
2018-03-31T01:09:32.449Z,85.75
2018-03-31T01:10:33.061Z,83.08
2018-03-31T01:11:33.632Z,81.74
2018-03-31T01:12:34.204Z,83.17
2018-03-31T01:13:34.772Z,82.79
2018-03-31T01:14:49.107Z,84.70
2018-03-31T01:15:49.728Z,85.57
2018-03-31T01:16:51.310Z,85.28
2018-03-31T01:17:51.887Z,84.89
2018-03-31T01:18:52.451Z,85.47
2018-03-31T01:19:53.024Z,83.46
2018-03-31T01:20:53.596Z,84.13
2018-03-31T01:21:54.166Z,82.12
2018-03-31T01:22:54.790Z,83.08
2018-03-31T01:23:55.357Z,83.27
2018-03-31T01:24:55.982Z,83.46
2018-03-31T01:25:56.555Z,83.94
2018-03-31T01:26:57.123Z,83.56
2018-03-31T01:27:57.697Z,83.27
2018-03-31T01:28:58.263Z,83.94
2018-03-31T01:29:58.833Z,83.08
2018-03-31T01:30:59.404Z,85.09
2018-03-31T01:32:00.023Z,84.42
2018-03-31T01:33:00.596Z,85.18
2018-03-31T01:34:01.163Z,83.56
2018-03-31T01:35:01.734Z,82.12
2018-03-31T01:36:02.303Z,81.93
2018-03-31T01:37:02.874Z,83.75
2018-03-31T01:38:03.445Z,80.69
2018-03-31T01:39:04.015Z,82.51
2018-03-31T01:40:04.584Z,82.12
2018-03-31T01:41:05.157Z,82.31
2018-03-31T01:42:05.730Z,82.31
2018-03-31T01:43:06.305Z,84.80
2018-03-31T01:44:06.922Z,84.61
2018-03-31T01:45:07.493Z,82.79
2018-03-31T01:46:21.828Z,83.27
2018-03-31T01:47:22.449Z,83.46
2018-03-31T01:48:23.068Z,84.70
2018-03-31T01:49:23.639Z,82.31
2018-03-31T01:50:24.209Z,82.79
2018-03-31T01:51:24.781Z,82.12
2018-03-31T01:52:25.355Z,84.23
2018-03-31T01:53:25.923Z,83.08
2018-03-31T01:54:26.493Z,81.26
2018-03-31T01:55:27.067Z,82.22
2018-03-31T01:56:27.638Z,81.07
2018-03-31T01:57:28.207Z,81.93
2018-03-31T01:58:28.780Z,83.08
2018-03-31T01:59:29.350Z,82.41
2018-03-31T02:00:29.920Z,83.56
2018-03-31T02:01:30.490Z,82.22
2018-03-31T02:02:31.112Z,81.65
2018-03-31T02:03:31.683Z,81.93
2018-03-31T02:04:32.305Z,82.03
2018-03-31T02:05:32.925Z,84.32
2018-03-31T02:06:33.520Z,83.75
2018-03-31T02:07:34.068Z,84.32
2018-03-31T02:08:34.640Z,82.98
2018-03-31T02:09:35.250Z,83.17
2018-03-31T02:10:35.822Z,83.37
2018-03-31T02:11:36.392Z,82.12
2018-03-31T02:12:36.962Z,83.46
2018-03-31T02:13:37.536Z,84.03
2018-03-31T02:14:38.150Z,83.84
2018-03-31T02:15:38.720Z,84.52
2018-03-31T02:16:39.291Z,84.89
2018-03-31T02:17:39.862Z,85.38
2018-03-31T02:18:40.435Z,85.94
2018-03-31T02:19:41.005Z,85.38
2018-03-31T02:20:41.625Z,85.09
2018-03-31T02:21:42.243Z,84.23
2018-03-31T02:22:42.817Z,84.61
2018-03-31T02:23:43.390Z,85.38
2018-03-31T02:24:44.004Z,84.23
2018-03-31T02:25:44.574Z,84.80
2018-03-31T02:26:45.142Z,84.23
2018-03-31T02:27:45.765Z,82.98
2018-03-31T02:28:46.335Z,84.23
2018-03-31T02:29:46.906Z,83.94
2018-03-31T02:30:47.481Z,84.42
2018-03-31T02:31:48.100Z,85.18
2018-03-31T02:32:48.668Z,85.09
2018-03-31T02:33:49.239Z,84.99
2018-03-31T02:34:49.810Z,85.18
2018-03-31T02:35:50.431Z,83.65
2018-03-31T02:36:50.999Z,84.52
2018-03-31T02:37:51.568Z,84.52
2018-03-31T02:38:52.191Z,83.37
2018-03-31T02:39:52.763Z,84.23
2018-03-31T02:40:53.334Z,84.03
2018-03-31T02:41:53.904Z,84.32
2018-03-31T02:42:54.478Z,84.42
2018-03-31T02:43:55.046Z,83.46
2018-03-31T02:44:55.631Z,83.03
2018-03-31T02:45:56.229Z,83.65
2018-03-31T02:46:56.851Z,84.70
2018-03-31T02:47:57.421Z,85.38
2018-03-31T02:48:57.993Z,83.75
2018-03-31T02:49:58.564Z,84.23
2018-03-31T02:50:59.136Z,82.60
2018-03-31T02:51:59.705Z,83.27
2018-03-31T02:53:00.278Z,82.22
2018-03-31T02:54:00.849Z,83.37
2018-03-31T02:55:01.620Z,84.61
2018-03-31T02:56:02.241Z,83.08
2018-03-31T02:57:02.811Z,82.22
2018-03-31T02:58:03.383Z,84.23
2018-03-31T02:59:03.954Z,84.52
2018-03-31T03:00:04.525Z,84.80
2018-03-31T03:01:05.097Z,84.89
2018-03-31T03:02:05.716Z,83.27
2018-03-31T03:03:06.288Z,83.65
2018-03-31T03:04:06.859Z,83.46
2018-03-31T03:05:07.436Z,84.03
2018-03-31T03:06:08.000Z,83.08
2018-03-31T03:07:08.570Z,83.94
2018-03-31T03:08:09.143Z,83.46
2018-03-31T03:09:09.712Z,83.46
2018-03-31T03:10:10.281Z,82.89
2018-03-31T03:11:10.853Z,83.75
2018-03-31T03:12:11.422Z,82.41
2018-03-31T03:13:11.992Z,83.56
2018-03-31T03:14:12.564Z,84.13
2018-03-31T03:15:13.178Z,84.42
2018-03-31T03:16:13.747Z,84.61
2018-03-31T03:17:14.369Z,84.42
2018-03-31T03:18:14.938Z,85.09
2018-03-31T03:19:15.561Z,84.42
2018-03-31T03:20:16.181Z,84.13
2018-03-31T03:21:16.801Z,85.18
2018-03-31T03:22:17.324Z,84.52
2018-03-31T03:23:17.895Z,83.56
2018-03-31T03:24:18.467Z,82.70
2018-03-31T03:25:19.037Z,83.50
2018-03-31T03:26:19.608Z,83.37
2018-03-31T03:27:20.179Z,83.46
2018-03-31T03:28:20.751Z,83.37
2018-03-31T03:29:21.320Z,83.37
2018-03-31T03:30:21.899Z,83.27
2018-03-31T03:31:22.508Z,84.42
2018-03-31T03:32:23.128Z,83.84
2018-03-31T03:33:23.699Z,84.42
2018-03-31T03:34:24.271Z,84.42
2018-03-31T03:35:25.043Z,84.42
2018-03-31T03:36:25.656Z,83.65
2018-03-31T03:37:26.226Z,83.75
2018-03-31T03:38:26.848Z,84.42
2018-03-31T03:39:27.417Z,84.61
2018-03-31T03:40:27.989Z,84.03
2018-03-31T03:41:28.560Z,84.42
2018-03-31T03:42:29.132Z,83.56
2018-03-31T03:43:29.701Z,84.99
2018-03-31T03:44:30.272Z,84.61
2018-03-31T03:45:30.845Z,84.23
2018-03-31T03:46:31.417Z,85.28
2018-03-31T03:47:32.028Z,84.32
2018-03-31T03:48:32.797Z,83.94
2018-03-31T03:49:33.370Z,84.89
2018-03-31T03:50:33.941Z,85.18
2018-03-31T03:51:34.510Z,85.66
2018-03-31T03:52:35.083Z,85.75
2018-03-31T03:53:35.702Z,85.66
2018-03-31T03:54:36.276Z,85.57
2018-03-31T03:55:36.855Z,85.66
2018-03-31T03:56:37.456Z,85.28
2018-03-31T03:57:38.028Z,85.18
2018-03-31T03:58:38.650Z,84.89
2018-03-31T03:59:39.228Z,84.42
2018-03-31T04:00:39.849Z,85.28
2018-03-31T04:01:40.421Z,85.28
2018-03-31T04:02:40.991Z,85.47
2018-03-31T04:03:41.563Z,84.89
2018-03-31T04:04:42.183Z,84.80
2018-03-31T04:05:42.751Z,85.38
2018-03-31T04:06:43.327Z,85.38
2018-03-31T04:07:43.934Z,85.75
2018-03-31T04:08:44.555Z,85.57
2018-03-31T04:09:45.153Z,84.23
2018-03-31T04:10:45.697Z,85.09
2018-03-31T04:11:46.269Z,85.94
2018-03-31T04:12:46.841Z,85.66
2018-03-31T04:13:47.412Z,85.66
2018-03-31T04:14:47.982Z,85.18
2018-03-31T04:15:48.553Z,84.32
2018-03-31T04:16:49.121Z,85.18
2018-03-31T04:17:49.692Z,85.75
2018-03-31T04:18:50.315Z,85.38
2018-03-31T04:19:50.929Z,85.28
2018-03-31T04:20:51.500Z,85.09
2018-03-31T04:21:52.071Z,85.38
2018-03-31T04:22:52.642Z,86.33
2018-03-31T04:23:53.212Z,85.66
2018-03-31T04:24:53.785Z,85.38
2018-03-31T04:25:54.408Z,85.18
2018-03-31T04:26:54.975Z,85.38
2018-03-31T04:27:55.546Z,85.18
2018-03-31T04:28:56.116Z,85.38
2018-03-31T04:29:56.688Z,85.28
2018-03-31T04:30:57.257Z,85.47
2018-03-31T04:31:57.828Z,86.43
2018-03-31T04:32:58.399Z,85.57
2018-03-31T04:33:58.970Z,85.47
2018-03-31T04:34:59.541Z,85.38
2018-03-31T04:36:00.112Z,85.09
2018-03-31T04:37:00.737Z,85.28
2018-03-31T04:38:01.307Z,84.70
2018-03-31T04:39:01.887Z,85.28
2018-03-31T04:40:02.490Z,84.99
2018-03-31T04:41:03.062Z,85.85
2018-03-31T04:42:03.633Z,85.38
2018-03-31T04:43:04.210Z,85.57
2018-03-31T04:44:04.826Z,85.47
2018-03-31T04:45:05.396Z,85.66
2018-03-31T04:46:05.969Z,85.09
2018-03-31T04:47:06.582Z,85.57
2018-03-31T04:48:07.154Z,86.14
2018-03-31T04:49:07.775Z,85.75
2018-03-31T04:50:08.345Z,85.85
2018-03-31T04:51:08.916Z,84.89
2018-03-31T04:52:09.536Z,85.75
2018-03-31T04:53:10.109Z,85.38
2018-03-31T04:54:10.680Z,86.33
2018-03-31T04:55:11.401Z,85.94
2018-03-31T04:56:11.971Z,85.28
2018-03-31T04:57:12.543Z,85.57
2018-03-31T04:58:13.137Z,85.66
2018-03-31T04:59:13.683Z,85.94
2018-03-31T05:00:14.304Z,85.09
2018-03-31T05:01:14.874Z,86.14
2018-03-31T05:02:15.447Z,85.75
2018-03-31T05:03:16.018Z,85.28
2018-03-31T05:04:16.588Z,84.99
2018-03-31T05:05:17.186Z,85.38
2018-03-31T05:06:17.730Z,85.18
2018-03-31T05:07:18.302Z,85.47
2018-03-31T05:08:18.874Z,85.94
2018-03-31T05:09:19.444Z,85.38
2018-03-31T05:10:20.067Z,85.57
2018-03-31T05:11:20.636Z,85.47
2018-03-31T05:12:21.207Z,85.75
2018-03-31T05:13:21.778Z,85.57
2018-03-31T05:14:22.399Z,85.66
2018-03-31T05:15:22.970Z,85.75
2018-03-31T05:16:23.540Z,84.89
2018-03-31T05:17:24.112Z,84.42
2018-03-31T05:18:24.683Z,84.70
2018-03-31T05:19:25.404Z,85.28
2018-03-31T05:20:25.974Z,84.70
2018-03-31T05:21:26.547Z,84.99
2018-03-31T05:22:27.117Z,84.03
2018-03-31T05:23:27.688Z,84.70
2018-03-31T05:24:28.258Z,85.75
2018-03-31T05:25:28.829Z,85.28
2018-03-31T05:26:29.399Z,85.28
2018-03-31T05:27:29.971Z,85.47
2018-03-31T05:28:30.592Z,85.57
2018-03-31T05:29:31.165Z,86.43
2018-03-31T05:30:31.935Z,85.85
2018-03-31T05:31:32.506Z,85.75
2018-03-31T05:32:33.077Z,85.28
2018-03-31T05:33:33.696Z,85.75
2018-03-31T05:34:34.267Z,85.09
2018-03-31T05:35:34.837Z,85.28
2018-03-31T05:36:35.408Z,85.75
2018-03-31T05:37:35.977Z,85.57
2018-03-31T05:38:36.547Z,85.75
2018-03-31T05:39:37.119Z,85.85
2018-03-31T05:40:37.790Z,85.75
2018-03-31T05:41:38.358Z,85.75
2018-03-31T05:42:38.930Z,86.04
2018-03-31T05:43:39.501Z,85.66
2018-03-31T05:44:40.072Z,85.47
2018-03-31T05:45:40.645Z,85.57
2018-03-31T05:46:41.217Z,85.85
2018-03-31T05:47:41.788Z,85.57
2018-03-31T05:48:42.358Z,85.57
2018-03-31T05:49:43.011Z,86.08
2018-03-31T05:50:43.552Z,85.57
2018-03-31T05:51:44.124Z,85.75
2018-03-31T05:52:44.735Z,85.66
2018-03-31T05:53:45.506Z,85.85
2018-03-31T05:54:46.077Z,85.66
2018-03-31T05:55:46.647Z,85.75
2018-03-31T05:56:47.220Z,86.23
2018-03-31T05:57:47.790Z,86.33
2018-03-31T05:58:48.360Z,86.43
2018-03-31T05:59:48.931Z,85.71
2018-03-31T06:00:49.501Z,86.04
2018-03-31T06:01:50.070Z,86.61
2018-03-31T06:02:50.642Z,86.14
2018-03-31T06:03:51.214Z,86.33
2018-03-31T06:04:51.835Z,86.52
2018-03-31T06:05:52.406Z,86.71
2018-03-31T06:06:53.027Z,86.43
2018-03-31T06:07:53.598Z,86.37
2018-03-31T06:08:54.218Z,86.23
2018-03-31T06:09:54.787Z,86.14
2018-03-31T06:10:55.356Z,86.43
2018-03-31T06:11:55.982Z,86.14
2018-03-31T06:12:56.546Z,86.23
2018-03-31T06:13:57.115Z,86.43
2018-03-31T06:14:57.688Z,86.23
2018-03-31T06:16:03.312Z,86.52
2018-03-31T06:17:03.882Z,86.23
2018-03-31T06:18:04.453Z,86.61
2018-03-31T06:19:05.024Z,86.61
2018-03-31T06:20:05.593Z,86.43
2018-03-31T06:21:06.204Z,86.33
2018-03-31T06:22:06.735Z,86.23
2018-03-31T06:23:07.355Z,86.23
2018-03-31T06:24:07.927Z,86.52
2018-03-31T06:25:08.499Z,86.52
2018-03-31T06:26:09.070Z,86.23
2018-03-31T06:27:09.695Z,86.43
2018-03-31T06:28:10.263Z,86.61
2018-03-31T06:29:10.835Z,86.61
2018-03-31T06:30:11.407Z,86.23
2018-03-31T06:31:11.977Z,86.43
2018-03-31T06:32:12.549Z,86.52
2018-03-31T06:33:13.120Z,86.61
2018-03-31T06:34:13.742Z,86.80
2018-03-31T06:35:14.312Z,86.52
2018-03-31T06:36:14.881Z,86.33
2018-03-31T06:37:15.454Z,86.52
2018-03-31T06:38:16.022Z,86.33
2018-03-31T06:39:16.601Z,87.09
2018-03-31T06:40:17.166Z,87.29
2018-03-31T06:41:17.750Z,86.90
2018-03-31T06:42:18.313Z,87.09
2018-03-31T06:43:19.031Z,87.19
2018-03-31T06:44:19.652Z,87.29
2018-03-31T06:45:20.220Z,87.19
2018-03-31T06:46:20.791Z,87.09
2018-03-31T06:47:21.385Z,86.90
2018-03-31T06:48:21.931Z,86.80
2018-03-31T06:49:22.505Z,86.90
2018-03-31T06:50:23.072Z,87.19
2018-03-31T06:51:23.645Z,86.80
2018-03-31T06:52:24.214Z,87.19
2018-03-31T06:53:24.785Z,87.09
2018-03-31T06:54:25.359Z,87.19
2018-03-31T06:55:25.930Z,87.09
2018-03-31T06:56:26.499Z,87.29
2018-03-31T06:57:27.118Z,86.80
2018-03-31T06:58:27.690Z,86.90
2018-03-31T06:59:28.263Z,86.80
2018-03-31T07:00:28.874Z,87.48
2018-03-31T07:01:29.496Z,87.76
2018-03-31T07:02:30.064Z,87.76
2018-03-31T07:03:30.685Z,86.80
2018-03-31T07:04:31.256Z,87.09
2018-03-31T07:05:31.877Z,87.09
2018-03-31T07:06:32.450Z,87.19
2018-03-31T07:07:33.021Z,86.90
2018-03-31T07:08:33.592Z,86.71
2018-03-31T07:09:34.161Z,87.00
2018-03-31T07:10:34.732Z,87.76
2018-03-31T07:11:35.305Z,86.71
2018-03-31T07:12:35.875Z,86.90
2018-03-31T07:13:36.443Z,87.09
2018-03-31T07:14:37.015Z,87.57
2018-03-31T07:15:37.587Z,87.29
2018-03-31T07:16:38.157Z,87.33
2018-03-31T07:17:38.730Z,86.71
2018-03-31T07:18:39.340Z,87.00
2018-03-31T07:19:39.959Z,87.29
2018-03-31T07:20:40.529Z,87.00
2018-03-31T07:21:41.149Z,86.90
2018-03-31T07:22:41.721Z,87.33
2018-03-31T07:23:42.366Z,87.48
2018-03-31T07:24:42.914Z,87.29
2018-03-31T07:25:43.486Z,87.33
2018-03-31T07:26:44.058Z,87.62
2018-03-31T07:27:44.628Z,87.52
2018-03-31T07:28:45.203Z,87.00
2018-03-31T07:29:45.769Z,87.52
2018-03-31T07:30:46.340Z,87.00
2018-03-31T07:31:46.911Z,87.29
2018-03-31T07:32:47.483Z,86.85
2018-03-31T07:33:48.053Z,87.14
2018-03-31T07:34:48.624Z,87.29
2018-03-31T07:35:49.252Z,86.37
2018-03-31T07:36:49.820Z,86.90
2018-03-31T07:37:50.394Z,86.90
2018-03-31T07:38:51.005Z,86.90
2018-03-31T07:39:51.628Z,87.00
2018-03-31T07:40:52.198Z,87.38
2018-03-31T07:41:52.818Z,86.85
2018-03-31T07:42:53.387Z,87.14
2018-03-31T07:43:53.960Z,87.09
2018-03-31T07:44:54.577Z,87.04
2018-03-31T07:45:55.146Z,87.09
2018-03-31T07:46:55.717Z,86.85
2018-03-31T07:47:56.290Z,86.90
2018-03-31T07:48:56.909Z,87.09
2018-03-31T07:49:57.481Z,87.00
2018-03-31T07:50:58.053Z,87.14
2018-03-31T07:52:20.395Z,87.04
2018-03-31T07:53:20.970Z,87.09
2018-03-31T07:54:21.587Z,87.19
2018-03-31T07:55:22.209Z,86.94
2018-03-31T07:56:22.781Z,86.94
2018-03-31T07:57:23.402Z,86.85
2018-03-31T07:58:23.974Z,87.14
2018-03-31T07:59:24.546Z,87.71
2018-03-31T08:00:25.116Z,87.00
2018-03-31T08:01:25.687Z,87.71
2018-03-31T08:02:26.260Z,87.62
2018-03-31T08:03:26.830Z,88.19
2018-03-31T08:04:27.399Z,87.81
2018-03-31T08:05:27.971Z,87.90
2018-03-31T08:06:28.594Z,87.62
2018-03-31T08:07:29.204Z,87.33
2018-03-31T08:08:29.774Z,87.23
2018-03-31T08:09:30.346Z,87.62
2018-03-31T08:10:30.914Z,87.52
2018-03-31T08:11:31.485Z,87.52
2018-03-31T08:12:32.105Z,87.52
2018-03-31T08:13:32.727Z,87.62
2018-03-31T08:14:33.345Z,87.62
2018-03-31T08:15:33.913Z,87.33
2018-03-31T08:16:34.490Z,87.52
2018-03-31T08:17:35.059Z,87.71
2018-03-31T08:18:35.630Z,88.29
2018-03-31T08:19:36.263Z,87.52
2018-03-31T08:20:36.774Z,87.71
2018-03-31T08:21:37.346Z,88.00
2018-03-31T08:22:37.918Z,87.71
2018-03-31T08:23:38.489Z,87.62
2018-03-31T08:24:39.095Z,87.90
2018-03-31T08:25:39.630Z,87.81
2018-03-31T08:26:40.202Z,86.85
2018-03-31T08:27:40.772Z,87.71
2018-03-31T08:28:41.343Z,87.52
2018-03-31T08:29:41.916Z,87.52
2018-03-31T08:30:42.538Z,87.62
2018-03-31T08:31:43.160Z,88.00
2018-03-31T08:32:43.881Z,88.19
2018-03-31T08:33:44.453Z,87.71
2018-03-31T08:34:45.025Z,87.81
2018-03-31T08:35:45.596Z,88.29
2018-03-31T08:36:46.167Z,87.71
2018-03-31T08:37:46.738Z,87.52
2018-03-31T08:38:47.308Z,87.90
2018-03-31T08:39:47.878Z,87.90
2018-03-31T08:40:48.454Z,87.71
2018-03-31T08:41:49.073Z,88.38
2018-03-31T08:42:49.600Z,87.90
2018-03-31T08:43:50.174Z,86.94
2018-03-31T08:44:50.753Z,86.76
2018-03-31T08:45:51.329Z,86.57
2018-03-31T08:46:51.904Z,86.37
2018-03-31T08:47:52.526Z,86.66
2018-03-31T08:48:53.099Z,86.08
2018-03-31T08:49:53.675Z,85.71
2018-03-31T08:50:54.251Z,86.41
2018-03-31T08:51:54.877Z,85.84
2018-03-31T08:52:55.452Z,85.84
2018-03-31T08:53:56.027Z,85.94
2018-03-31T08:54:56.601Z,85.46
2018-03-31T08:55:57.178Z,85.75
2018-03-31T08:56:57.752Z,85.75
2018-03-31T08:57:58.328Z,86.70
2018-03-31T08:58:58.904Z,86.51
2018-03-31T08:59:59.482Z,86.41
2018-03-31T09:01:00.263Z,85.75
2018-03-31T09:02:00.877Z,85.75
2018-03-31T09:03:01.453Z,85.46
2018-03-31T09:04:02.029Z,85.46
2018-03-31T09:05:02.657Z,85.12
2018-03-31T09:06:03.235Z,85.31
2018-03-31T09:07:03.811Z,85.02
2018-03-31T09:08:04.388Z,85.41
2018-03-31T09:09:05.006Z,84.83
2018-03-31T09:10:05.541Z,84.74
2018-03-31T09:11:06.123Z,84.45
2018-03-31T09:12:06.788Z,84.92
2018-03-31T09:13:07.365Z,84.83
2018-03-31T09:14:07.945Z,84.74
2018-03-31T09:15:08.522Z,84.74
2018-03-31T09:16:09.102Z,85.12
2018-03-31T09:17:09.677Z,84.55
2018-03-31T09:18:10.261Z,84.26
2018-03-31T09:19:10.838Z,85.50
2018-03-31T09:20:11.464Z,85.31
2018-03-31T09:21:12.044Z,84.64
2018-03-31T09:22:12.619Z,84.92
2018-03-31T09:23:13.195Z,84.64
2018-03-31T09:24:13.773Z,84.55
2018-03-31T09:25:14.400Z,84.64
2018-03-31T09:26:14.978Z,84.45
2018-03-31T09:27:15.553Z,84.35
2018-03-31T09:28:16.180Z,84.64
2018-03-31T09:29:16.757Z,84.55
2018-03-31T09:30:17.335Z,84.55
2018-03-31T09:31:17.909Z,84.64
2018-03-31T09:32:18.484Z,85.21
2018-03-31T09:33:19.059Z,85.02
2018-03-31T09:34:19.638Z,85.50
2018-03-31T09:35:20.214Z,85.50
2018-03-31T09:36:20.793Z,85.41
2018-03-31T09:37:21.371Z,85.12
2018-03-31T09:38:21.949Z,85.02
2018-03-31T09:39:22.525Z,85.98
2018-03-31T09:40:23.105Z,85.21
2018-03-31T09:41:23.833Z,84.83
2018-03-31T09:42:24.459Z,84.26
2018-03-31T09:43:25.037Z,84.97
2018-03-31T09:44:25.613Z,84.49
2018-03-31T09:45:26.190Z,84.92
2018-03-31T09:46:26.766Z,84.55
2018-03-31T09:47:27.344Z,84.26
2018-03-31T09:48:27.970Z,84.68
2018-03-31T09:49:28.546Z,85.25
2018-03-31T09:50:29.122Z,85.31
2018-03-31T09:51:29.700Z,86.08
2018-03-31T09:52:30.276Z,85.31
2018-03-31T09:53:30.854Z,85.12
2018-03-31T09:54:31.431Z,85.12
2018-03-31T09:55:32.010Z,85.41
2018-03-31T09:56:32.586Z,85.35
2018-03-31T09:57:33.165Z,84.97
2018-03-31T09:58:33.744Z,85.06
2018-03-31T09:59:34.372Z,85.06
2018-03-31T10:00:34.950Z,84.49
2018-03-31T10:01:35.528Z,83.72
2018-03-31T10:02:36.154Z,84.20
2018-03-31T10:03:36.732Z,84.11
2018-03-31T10:04:37.310Z,83.72
2018-03-31T10:05:38.088Z,84.30
2018-03-31T10:06:38.666Z,84.15
2018-03-31T10:07:39.247Z,83.44
2018-03-31T10:08:39.824Z,83.25
2018-03-31T10:09:40.404Z,84.49
2018-03-31T10:10:40.980Z,84.39
2018-03-31T10:11:41.556Z,85.06
2018-03-31T10:12:42.183Z,84.30
2018-03-31T10:13:42.761Z,85.25
2018-03-31T10:14:43.338Z,84.88
2018-03-31T10:15:43.967Z,85.54
2018-03-31T10:16:44.543Z,85.16
2018-03-31T10:17:45.173Z,84.49
2018-03-31T10:18:45.750Z,83.53
2018-03-31T10:19:46.333Z,84.39
2018-03-31T10:20:46.904Z,82.57
2018-03-31T10:21:47.483Z,82.29
2018-03-31T10:22:48.111Z,82.29
2018-03-31T10:23:48.688Z,82.19
2018-03-31T10:24:49.268Z,82.29
2018-03-31T10:25:49.846Z,83.63
2018-03-31T10:26:50.424Z,84.49
2018-03-31T10:27:51.002Z,84.78
2018-03-31T10:28:51.580Z,84.82
2018-03-31T10:29:52.159Z,85.11
2018-03-31T10:30:52.736Z,85.01
2018-03-31T10:31:53.316Z,85.21
2018-03-31T10:32:53.944Z,85.16
2018-03-31T10:33:54.521Z,83.58
2018-03-31T10:34:55.100Z,83.86
2018-03-31T10:35:55.919Z,84.49
2018-03-31T10:36:56.496Z,84.78
2018-03-31T10:37:57.076Z,84.58
2018-03-31T10:38:57.655Z,84.53
2018-03-31T10:39:58.237Z,83.76
2018-03-31T10:40:58.874Z,84.15
2018-03-31T10:41:59.446Z,84.44
2018-03-31T10:43:00.023Z,83.76
2018-03-31T10:44:00.601Z,83.67
2018-03-31T10:45:01.178Z,84.44
2018-03-31T10:46:01.758Z,84.44
2018-03-31T10:47:02.338Z,83.48
2018-03-31T10:48:02.919Z,83.67
2018-03-31T10:49:03.499Z,83.19
2018-03-31T10:50:04.079Z,82.71
2018-03-31T10:51:04.659Z,81.85
2018-03-31T10:52:05.239Z,82.23
2018-03-31T10:53:05.871Z,82.32
2018-03-31T10:54:06.503Z,82.27
2018-03-31T10:55:07.084Z,82.56
2018-03-31T10:56:07.814Z,82.27
2018-03-31T10:57:08.395Z,81.89
2018-03-31T10:58:08.975Z,81.70
2018-03-31T10:59:09.555Z,81.41
2018-03-31T11:00:10.137Z,81.31
2018-03-31T11:01:10.723Z,81.31
2018-03-31T11:02:11.304Z,80.55
2018-03-31T11:03:11.884Z,80.26
2018-03-31T11:04:12.524Z,80.55
2018-03-31T11:05:13.114Z,80.58
2018-03-31T11:06:13.706Z,79.91
2018-03-31T11:07:14.296Z,79.72
2018-03-31T11:08:14.887Z,79.72
2018-03-31T11:09:15.478Z,79.63
2018-03-31T11:10:16.069Z,78.77
2018-03-31T11:11:16.712Z,78.77
2018-03-31T11:12:17.301Z,78.52
2018-03-31T11:13:17.944Z,78.70
2018-03-31T11:14:18.536Z,78.42
2018-03-31T11:15:19.129Z,78.23
2018-03-31T11:16:19.720Z,77.94
2018-03-31T11:17:20.464Z,77.65
2018-03-31T11:18:21.056Z,76.88
2018-03-31T11:19:21.646Z,76.06
2018-03-31T11:20:22.239Z,75.29
2018-03-31T11:21:22.833Z,75.45
2018-03-31T11:22:23.424Z,74.81
2018-03-31T11:23:24.019Z,74.43
2018-03-31T11:24:24.611Z,73.94
2018-03-31T11:25:25.204Z,73.75
2018-03-31T11:26:25.802Z,73.85
2018-03-31T11:27:26.436Z,74.17
2018-03-31T11:28:27.078Z,74.37
2018-03-31T11:29:27.722Z,74.08
2018-03-31T11:30:28.415Z,73.02
2018-03-31T11:31:29.008Z,72.83
2018-03-31T11:32:29.601Z,72.64
2018-03-31T11:33:30.194Z,72.64
2018-03-31T11:34:30.838Z,72.64
2018-03-31T11:35:31.435Z,73.21
2018-03-31T11:36:32.227Z,73.79
2018-03-31T11:37:32.819Z,74.04
2018-03-31T11:39:34.990Z,74.52
2018-03-31T11:40:35.581Z,74.62
2018-03-31T11:42:37.751Z,75.00
2018-03-31T11:43:38.348Z,75.06
2018-03-31T11:44:38.975Z,74.52
2018-03-31T11:45:39.566Z,75.00
2018-03-31T11:46:40.203Z,74.81
2018-03-31T11:47:40.942Z,75.06
2018-03-31T11:48:41.539Z,75.73
2018-03-31T11:50:57.461Z,75.35
2018-03-31T11:51:58.093Z,75.63
2018-03-31T11:52:58.680Z,75.63
2018-03-31T11:54:13.032Z,75.63
2018-03-31T11:55:13.675Z,75.45
2018-03-31T11:56:14.263Z,75.35
2018-03-31T11:57:14.851Z,75.45
2018-03-31T11:58:15.439Z,75.45
2018-03-31T11:59:16.028Z,75.15
2018-03-31T12:00:16.617Z,75.06
2018-03-31T12:01:17.206Z,75.15
2018-03-31T12:02:17.794Z,75.45
2018-03-31T12:03:18.383Z,75.73
2018-03-31T12:04:18.978Z,75.45
2018-03-31T12:05:19.603Z,76.02
2018-03-31T12:06:20.240Z,75.92
2018-03-31T12:07:20.827Z,75.98
2018-03-31T12:08:21.412Z,75.70
2018-03-31T12:09:22.000Z,76.12
2018-03-31T12:10:22.636Z,76.02
2018-03-31T12:11:23.274Z,75.98
2018-03-31T12:12:23.858Z,76.02
2018-03-31T12:13:24.447Z,75.82
2018-03-31T12:14:25.035Z,75.73
2018-03-31T12:15:25.620Z,75.15
2018-03-31T12:16:26.216Z,75.06
2018-03-31T12:17:26.837Z,74.52
2018-03-31T12:18:27.424Z,74.52
2018-03-31T12:19:28.012Z,73.66
2018-03-31T12:20:28.600Z,72.44
2018-03-31T12:21:29.187Z,72.25
2018-03-31T12:22:29.777Z,71.77
2018-03-31T12:23:30.365Z,71.81
2018-03-31T12:24:30.953Z,71.33
2018-03-31T12:25:31.597Z,71.33
2018-03-31T12:26:32.182Z,71.48
2018-03-31T12:27:32.813Z,71.58
2018-03-31T12:28:47.159Z,71.67
2018-03-31T12:29:47.741Z,71.67
2018-03-31T12:30:48.321Z,72.25
2018-03-31T12:31:48.903Z,72.34
2018-03-31T12:32:49.486Z,72.54
2018-03-31T12:33:50.069Z,72.25
2018-03-31T12:34:50.810Z,71.58
2018-03-31T12:35:51.400Z,71.87
2018-03-31T12:36:51.988Z,71.42
2018-03-31T12:37:52.580Z,71.04
2018-03-31T12:38:53.174Z,71.14
2018-03-31T12:39:53.804Z,70.27
2018-03-31T12:40:54.393Z,69.44
2018-03-31T12:41:55.033Z,68.90
2018-03-31T12:42:55.626Z,67.39
2018-03-31T12:43:56.261Z,65.88
2018-03-31T12:44:56.851Z,65.40
2018-03-31T12:47:12.780Z,64.73
2018-03-31T12:49:14.997Z,65.85
2018-03-31T12:50:15.585Z,65.88
2018-03-31T12:51:16.362Z,64.63
2018-03-31T12:52:16.960Z,64.43
2018-03-31T12:53:17.524Z,65.01
2018-03-31T12:58:05.022Z,67.51
2018-03-31T12:59:05.607Z,68.48
2018-03-31T13:00:06.242Z,68.76
2018-03-31T13:01:06.866Z,69.02
2018-03-31T13:03:23.085Z,69.60
2018-03-31T13:04:24.295Z,69.60
2018-03-31T13:05:25.256Z,69.79
2018-03-31T13:06:25.840Z,69.60
2018-03-31T13:08:42.102Z,70.07
2018-03-31T13:10:58.413Z,71.10
2018-03-31T13:11:59.036Z,71.10
2018-03-31T13:13:02.657Z,71.00
2018-03-31T13:14:03.887Z,71.10
2018-03-31T13:16:20.198Z,68.03